Time;durP1;ratioP1;P1;durP2;ratioP2;P2;SDS_P1;SDS_P2;PMS_P1;PMS_P2;Temp;Humidity;BMP_temperature;BMP_pressure;BME280_temperature;BME280_humidity;BME280_pressure;Samples;Min_cycle;Max_cycle;Signal;HPM_P1;HPM_P2
2022/04/13 00:01:21;;;;;;;7.03;5.20;;;14.40;98.10;;;;;;5115222;28;20582;-67
2022/04/13 00:03:49;;;;;;;5.60;5.10;;;14.40;98.10;;;;;;5115165;28;20211;-66
2022/04/13 00:06:16;;;;;;;7.95;5.22;;;14.40;98.00;;;;;;5115353;27;20199;-67
2022/04/13 00:08:44;;;;;;;4.95;4.55;;;14.40;98.30;;;;;;5115172;28;20296;-67
2022/04/13 00:11:13;;;;;;;6.40;4.63;;;14.40;98.10;;;;;;5115073;27;20280;-67
2022/04/13 00:13:40;;;;;;;5.68;5.18;;;14.40;98.40;;;;;;5114509;28;20202;-67
2022/04/13 00:16:07;;;;;;;5.38;4.97;;;14.40;98.40;;;;;;5114675;28;20232;-67
2022/04/13 00:18:34;;;;;;;5.90;5.30;;;14.30;98.40;;;;;;5115051;28;20651;-67
2022/04/13 00:21:02;;;;;;;5.70;5.20;;;14.40;98.20;;;;;;5114750;28;20229;-66
2022/04/13 00:23:29;;;;;;;5.18;4.68;;;14.30;98.00;;;;;;5114988;28;20292;-67
2022/04/13 00:25:56;;;;;;;6.22;4.60;;;14.30;98.30;;;;;;5114582;28;20771;-67
2022/04/13 00:28:23;;;;;;;6.60;4.75;;;14.30;98.60;;;;;;5114886;28;20292;-66
2022/04/13 00:30:50;;;;;;;6.40;5.47;;;14.30;98.40;;;;;;5114330;28;20241;-66
2022/04/13 00:33:17;;;;;;;5.85;5.35;;;14.30;98.70;;;;;;5114547;28;20577;-66
2022/04/13 00:35:43;;;;;;;5.88;5.38;;;14.30;98.50;;;;;;5114645;28;20293;-66
2022/04/13 00:38:12;;;;;;;6.05;5.32;;;14.20;98.10;;;;;;5114478;28;20294;-66
2022/04/13 00:40:40;;;;;;;4.95;4.45;;;14.30;98.20;;;;;;5114501;28;20598;-66
2022/04/13 00:43:07;;;;;;;5.00;4.53;;;14.20;98.40;;;;;;5114432;28;20271;-67
2022/04/13 00:45:35;;;;;;;6.22;5.30;;;14.30;98.10;;;;;;5114629;28;20198;-67
2022/04/13 00:48:04;;;;;;;6.00;5.47;;;14.30;98.30;;;;;;5114488;28;20605;-66
2022/04/13 00:50:31;;;;;;;5.60;5.15;;;14.20;98.40;;;;;;5114648;28;20222;-66
2022/04/13 00:53:00;;;;;;;5.13;4.63;;;14.20;98.50;;;;;;5114375;28;20209;-66
2022/04/13 00:55:31;;;;;;;6.70;5.13;;;14.30;98.40;;;;;;5114304;28;20210;-66
2022/04/13 00:57:59;;;;;;;4.80;4.40;;;14.20;98.70;;;;;;5114262;28;20226;-66
2022/04/13 01:00:26;;;;;;;6.88;4.85;;;14.20;98.40;;;;;;5113986;28;20768;-66
2022/04/13 01:02:54;;;;;;;6.95;5.07;;;14.20;98.60;;;;;;5114313;28;20233;-66
2022/04/13 01:05:22;;;;;;;5.38;4.88;;;14.20;98.60;;;;;;5114163;28;20205;-66
2022/04/13 01:07:52;;;;;;;8.80;6.28;;;14.00;98.60;;;;;;5114190;28;20563;-66
2022/04/13 01:10:19;;;;;;;6.18;5.68;;;13.90;99.10;;;;;;5114065;28;20205;-66
2022/04/13 01:12:47;;;;;;;6.72;5.50;;;13.90;99.30;;;;;;5114216;28;20711;-67
2022/04/13 01:15:14;;;;;;;6.38;5.78;;;13.90;99.30;;;;;;5113991;28;20298;-66
2022/04/13 01:17:43;;;;;;;6.28;5.50;;;13.80;99.50;;;;;;5114050;28;20274;-67
2022/04/13 01:20:11;;;;;;;6.97;5.00;;;13.80;99.70;;;;;;5113935;28;20293;-67
2022/04/13 01:22:40;;;;;;;7.82;5.43;;;13.70;99.50;;;;;;5114156;28;20229;-66
2022/04/13 01:25:08;;;;;;;6.72;5.10;;;13.60;99.60;;;;;;5115192;28;20279;-66
2022/04/13 01:27:35;;;;;;;5.78;5.28;;;13.60;99.90;;;;;;5118347;28;20237;-66
2022/04/13 01:30:06;;;;;;;6.63;4.85;;;13.60;99.90;;;;;;5118232;28;20671;-67
2022/04/13 01:32:33;;;;;;;6.18;5.25;;;13.60;99.90;;;;;;5118330;27;20580;-66
2022/04/13 01:35:00;;;;;;;5.70;4.97;;;13.50;99.90;;;;;;5118362;28;20291;-66
2022/04/13 01:37:26;;;;;;;5.95;5.35;;;13.50;99.90;;;;;;5117785;27;20705;-66
2022/04/13 01:39:54;;;;;;;6.00;5.50;;;13.40;99.90;;;;;;5118125;28;20205;-67
2022/04/13 01:42:21;;;;;;;6.07;5.47;;;13.40;99.90;;;;;;5118046;28;20221;-66
2022/04/13 01:44:49;;;;;;;6.22;5.55;;;13.40;99.90;;;;;;5117836;28;20207;-66
2022/04/13 01:47:16;;;;;;;5.85;5.25;;;13.40;99.90;;;;;;5117962;28;20545;-66
2022/04/13 01:49:43;;;;;;;6.63;5.32;;;13.40;99.90;;;;;;5117897;28;20211;-67
2022/04/13 01:52:11;;;;;;;6.07;5.43;;;13.40;99.90;;;;;;5117566;28;20221;-66
2022/04/13 01:54:38;;;;;;;5.90;5.30;;;13.40;99.90;;;;;;5117714;28;20197;-66
2022/04/13 01:57:07;;;;;;;5.80;5.30;;;13.50;99.90;;;;;;5117603;27;20229;-66
2022/04/13 01:59:33;;;;;;;5.30;4.90;;;13.50;99.90;;;;;;5117582;28;20655;-66
2022/04/13 02:02:02;;;;;;;6.50;5.60;;;13.40;99.90;;;;;;5117713;28;20217;-66
2022/04/13 02:04:28;;;;;;;5.28;4.78;;;13.40;99.90;;;;;;5117318;27;20258;-66
2022/04/13 02:06:55;;;;;;;6.90;5.57;;;13.40;99.90;;;;;;5117397;28;20193;-66
2022/04/13 02:09:22;;;;;;;6.32;5.20;;;13.30;99.90;;;;;;5117471;28;20576;-66
2022/04/13 02:11:49;;;;;;;9.32;5.00;;;13.20;99.90;;;;;;5117533;28;20228;-66
2022/04/13 02:14:17;;;;;;;5.60;5.10;;;13.10;99.90;;;;;;5117386;28;20305;-66
2022/04/13 02:16:44;;;;;;;5.90;5.32;;;13.00;99.90;;;;;;5117339;28;20316;-66
2022/04/13 02:19:12;;;;;;;6.00;5.40;;;13.10;99.90;;;;;;5117264;28;20664;-66
2022/04/13 02:21:39;;;;;;;8.90;5.65;;;13.00;99.90;;;;;;5117305;28;20228;-66
2022/04/13 02:24:07;;;;;;;6.80;5.15;;;12.80;99.90;;;;;;5116924;28;20209;-66
2022/04/13 02:26:34;;;;;;;5.80;5.30;;;12.70;99.90;;;;;;5117302;27;20194;-66
2022/04/13 02:29:01;;;;;;;6.40;5.80;;;12.80;99.90;;;;;;5117099;28;20270;-66
2022/04/13 02:31:29;;;;;;;6.13;5.57;;;12.80;99.90;;;;;;5117104;28;20225;-67
2022/04/13 02:33:56;;;;;;;6.40;5.80;;;12.90;99.90;;;;;;5116752;28;20209;-66
2022/04/13 02:36:23;;;;;;;5.72;5.10;;;12.90;99.90;;;;;;5116532;28;20198;-66
2022/04/13 02:38:50;;;;;;;6.93;5.75;;;12.90;99.90;;;;;;5117315;28;20207;-66
2022/04/13 02:41:16;;;;;;;8.63;5.53;;;12.80;99.90;;;;;;5116797;27;20232;-67
2022/04/13 02:43:43;;;;;;;5.95;5.43;;;12.90;99.90;;;;;;5116817;28;20224;-66
2022/04/13 02:46:10;;;;;;;4.82;4.43;;;12.80;99.90;;;;;;5116751;28;20197;-66
2022/04/13 02:48:38;;;;;;;5.15;4.75;;;12.80;99.90;;;;;;5116831;28;20207;-66
2022/04/13 02:51:05;;;;;;;6.00;5.35;;;12.70;99.90;;;;;;5116710;28;20248;-66
2022/04/13 02:53:32;;;;;;;5.30;4.90;;;12.60;99.90;;;;;;5116446;28;20204;-66
2022/04/13 02:56:00;;;;;;;5.40;4.90;;;12.60;99.90;;;;;;5116631;28;20204;-66
2022/04/13 02:58:26;;;;;;;5.90;5.07;;;12.60;99.90;;;;;;5116293;28;20243;-66
2022/04/13 03:00:54;;;;;;;6.00;5.40;;;12.60;99.90;;;;;;5116192;28;20762;-66
2022/04/13 03:03:22;;;;;;;5.45;4.95;;;12.70;99.90;;;;;;5116722;28;20205;-66
2022/04/13 03:05:50;;;;;;;6.38;5.30;;;12.70;99.90;;;;;;5116774;28;20209;-66
2022/04/13 03:08:17;;;;;;;6.30;5.50;;;12.70;99.90;;;;;;5116410;28;20541;-66
2022/04/13 03:10:44;;;;;;;6.35;5.20;;;12.60;99.90;;;;;;5116372;28;20225;-66
2022/04/13 03:13:12;;;;;;;5.53;5.03;;;12.50;99.90;;;;;;5116153;28;20287;-66
2022/04/13 03:15:38;;;;;;;6.35;5.22;;;12.40;99.90;;;;;;5116276;28;20289;-66
2022/04/13 03:18:06;;;;;;;6.93;5.45;;;12.40;99.90;;;;;;5115855;28;20221;-66
2022/04/13 03:20:33;;;;;;;6.80;6.10;;;12.40;99.90;;;;;;5116085;28;20221;-66
2022/04/13 03:23:01;;;;;;;6.85;5.93;;;12.50;99.90;;;;;;5116033;28;20207;-67
2022/04/13 03:25:28;;;;;;;6.10;5.50;;;12.50;99.90;;;;;;5116064;28;20204;-66
2022/04/13 03:27:55;;;;;;;7.10;6.40;;;12.50;99.90;;;;;;5115972;28;20193;-66
2022/04/13 03:30:23;;;;;;;5.25;4.75;;;12.50;99.90;;;;;;5115939;28;20211;-67
2022/04/13 03:32:51;;;;;;;5.70;5.20;;;12.50;99.90;;;;;;5116361;28;20288;-66
2022/04/13 03:35:18;;;;;;;7.18;5.18;;;12.50;99.90;;;;;;5115611;28;20205;-66
2022/04/13 03:37:44;;;;;;;5.78;5.25;;;12.40;99.90;;;;;;5115742;28;20224;-66
2022/04/13 03:40:13;;;;;;;5.80;5.22;;;12.40;99.90;;;;;;5115793;28;20677;-69
2022/04/13 03:42:42;;;;;;;6.13;5.22;;;12.30;99.90;;;;;;5115997;28;20219;-66
2022/04/13 03:45:10;;;;;;;6.18;5.32;;;12.40;99.90;;;;;;5115502;28;20198;-66
2022/04/13 03:47:39;;;;;;;5.85;5.15;;;12.30;99.90;;;;;;5114845;28;20201;-66
2022/04/13 03:50:06;;;;;;;6.10;5.50;;;12.30;99.90;;;;;;5115434;28;20284;-66
2022/04/13 03:52:34;;;;;;;6.28;5.55;;;12.30;99.90;;;;;;5115940;28;20552;-66
2022/04/13 03:55:01;;;;;;;6.07;5.47;;;12.40;99.90;;;;;;5115087;28;20211;-66
2022/04/13 03:57:29;;;;;;;9.90;6.60;;;12.30;99.90;;;;;;5115360;28;20221;-66
2022/04/13 03:59:56;;;;;;;8.77;5.70;;;12.20;99.90;;;;;;5115433;28;20200;-66
2022/04/13 04:02:23;;;;;;;6.30;5.72;;;12.10;99.90;;;;;;5115296;27;20221;-68
2022/04/13 04:04:49;;;;;;;6.10;5.50;;;12.10;99.90;;;;;;5115032;28;20663;-68
2022/04/13 04:07:16;;;;;;;6.13;5.07;;;12.10;99.90;;;;;;5115097;28;20678;-68
2022/04/13 04:09:43;;;;;;;7.35;5.97;;;12.10;99.90;;;;;;5115194;28;20288;-68
2022/04/13 04:12:11;;;;;;;7.47;6.20;;;12.10;99.90;;;;;;5115155;28;20643;-68
2022/04/13 04:14:40;;;;;;;9.07;8.10;;;12.00;99.90;;;;;;5114759;28;20201;-68
2022/04/13 04:17:06;;;;;;;6.85;5.72;;;12.00;99.90;;;;;;5114981;28;20312;-68
2022/04/13 04:19:34;;;;;;;6.25;5.70;;;11.90;99.90;;;;;;5114800;28;20205;-68
2022/04/13 04:22:01;;;;;;;8.48;5.65;;;11.90;99.90;;;;;;5114871;28;20224;-68
2022/04/13 04:24:28;;;;;;;18.85;14.02;;;11.90;99.90;;;;;;5114511;28;20674;-65
2022/04/13 04:26:54;;;;;;;7.13;6.45;;;11.80;99.90;;;;;;5114878;28;20292;-66
2022/04/13 04:29:22;;;;;;;6.00;5.40;;;11.90;99.90;;;;;;5114617;28;20635;-66
2022/04/13 04:31:53;;;;;;;8.77;6.28;;;11.80;99.90;;;;;;5114714;28;20278;-66
2022/04/13 04:34:22;;;;;;;10.18;6.47;;;11.70;99.90;;;;;;5114439;28;20300;-67
2022/04/13 04:36:50;;;;;;;7.35;5.50;;;11.70;99.90;;;;;;5114433;27;20201;-66
2022/04/13 04:39:18;;;;;;;5.78;5.10;;;11.80;99.90;;;;;;5115203;28;20570;-68
2022/04/13 04:41:45;;;;;;;6.13;5.53;;;11.80;99.90;;;;;;5114635;28;20221;-66
2022/04/13 04:44:12;;;;;;;7.63;5.70;;;11.90;99.90;;;;;;5114268;28;20197;-66
2022/04/13 04:46:39;;;;;;;7.03;6.30;;;11.90;99.90;;;;;;5114264;28;20659;-66
2022/04/13 04:49:08;;;;;;;6.75;6.05;;;12.00;99.90;;;;;;5114932;28;20711;-66
2022/04/13 04:51:35;;;;;;;7.20;6.05;;;11.90;99.90;;;;;;5114454;28;20225;-66
2022/04/13 04:54:03;;;;;;;7.03;5.75;;;11.90;99.90;;;;;;5114271;28;20594;-68
2022/04/13 04:56:30;;;;;;;6.07;5.53;;;11.90;99.90;;;;;;5114357;28;20205;-68
2022/04/13 04:58:57;;;;;;;8.25;6.25;;;11.90;99.90;;;;;;5114343;28;20225;-68
2022/04/13 05:01:24;;;;;;;7.07;6.38;;;12.00;99.90;;;;;;5114113;28;20560;-69
2022/04/13 05:03:51;;;;;;;9.40;7.10;;;12.00;99.90;;;;;;5114458;28;20240;-68
2022/04/13 05:06:22;;;;;;;7.53;6.70;;;12.00;99.90;;;;;;5114262;28;20197;-69
2022/04/13 05:08:49;;;;;;;9.45;8.52;;;12.00;99.90;;;;;;5114213;28;20247;-68
2022/04/13 05:11:15;;;;;;;8.00;7.20;;;12.00;99.90;;;;;;5113882;28;20717;-67
2022/04/13 05:13:45;;;;;;;7.03;6.43;;;12.10;99.90;;;;;;5114112;28;20209;-69
2022/04/13 05:16:13;;;;;;;6.95;6.15;;;12.10;99.90;;;;;;5114087;28;20201;-68
2022/04/13 05:18:40;;;;;;;8.02;7.32;;;12.10;99.90;;;;;;5114009;28;20221;-69
2022/04/13 05:21:07;;;;;;;6.95;6.35;;;12.10;99.90;;;;;;5114115;28;20647;-69
2022/04/13 05:23:35;;;;;;;8.02;6.32;;;12.10;99.90;;;;;;5113894;28;20207;-69
2022/04/13 05:26:02;;;;;;;8.60;6.80;;;12.10;99.90;;;;;;5114043;28;20212;-66
2022/04/13 05:28:29;;;;;;;5.97;5.47;;;12.10;99.90;;;;;;5113967;28;20193;-66
2022/04/13 05:30:56;;;;;;;6.60;6.00;;;12.20;99.90;;;;;;5113717;28;20698;-69
2022/04/13 05:33:23;;;;;;;11.15;6.60;;;12.20;99.90;;;;;;5113761;28;20633;-67
2022/04/13 05:35:50;;;;;;;6.88;6.20;;;12.40;99.90;;;;;;5114389;28;20206;-67
2022/04/13 05:38:17;;;;;;;7.57;6.45;;;12.40;99.90;;;;;;5113949;28;20581;-68
2022/04/13 05:40:45;;;;;;;6.10;5.60;;;12.50;99.90;;;;;;5113952;28;20225;-69
2022/04/13 05:43:12;;;;;;;6.88;6.10;;;12.60;99.90;;;;;;5113772;28;20201;-69
2022/04/13 05:45:39;;;;;;;6.57;5.97;;;12.50;99.90;;;;;;5113981;28;20205;-69
2022/04/13 05:48:06;;;;;;;6.53;5.93;;;12.60;99.90;;;;;;5114018;28;20197;-69
2022/04/13 05:50:33;;;;;;;7.95;6.10;;;12.70;99.90;;;;;;5113610;28;20218;-69
2022/04/13 05:53:00;;;;;;;7.07;5.50;;;12.80;99.90;;;;;;5113489;28;20211;-70
2022/04/13 05:55:27;;;;;;;8.75;6.05;;;12.70;99.90;;;;;;5114119;28;20197;-69
2022/04/13 05:57:55;;;;;;;6.93;5.82;;;12.70;99.90;;;;;;5113744;28;20714;-70
2022/04/13 06:00:24;;;;;;;7.38;6.18;;;12.70;99.90;;;;;;5113813;28;20209;-67
2022/04/13 06:02:51;;;;;;;6.90;6.20;;;12.90;99.90;;;;;;5113584;28;20207;-67
2022/04/13 06:05:17;;;;;;;7.60;5.88;;;13.10;99.90;;;;;;5113694;28;20586;-68
2022/04/13 06:07:44;;;;;;;7.85;7.05;;;13.20;99.90;;;;;;5113672;28;20568;-69
2022/04/13 06:10:15;;;;;;;11.50;7.10;;;13.30;99.90;;;;;;5113589;28;20201;-69
2022/04/13 06:12:42;;;;;;;11.65;7.35;;;13.40;99.90;;;;;;5117257;28;20200;-69
2022/04/13 06:15:12;;;;;;;9.70;8.75;;;13.50;99.90;;;;;;5117391;28;20204;-69
2022/04/13 06:17:40;;;;;;;10.07;8.13;;;13.40;99.90;;;;;;5117164;28;20213;-68
2022/04/13 06:20:08;;;;;;;12.05;9.40;;;13.30;99.90;;;;;;5117721;28;20297;-69
2022/04/13 06:22:39;;;;;;;11.52;9.55;;;13.10;99.90;;;;;;5117044;28;20206;-69
2022/04/13 06:25:07;;;;;;;12.25;9.70;;;13.00;99.90;;;;;;5117241;28;20186;-69
2022/04/13 06:27:34;;;;;;;13.15;10.88;;;12.90;99.90;;;;;;5117088;28;20674;-69
2022/04/13 06:30:02;;;;;;;13.38;11.10;;;12.80;99.90;;;;;;5116894;28;20602;-68
2022/04/13 06:32:40;;;;;;;12.43;10.95;;;12.90;99.90;;;;;;5117009;28;20312;-69
2022/04/13 06:35:11;;;;;;;11.48;10.38;;;13.00;99.90;;;;;;5117145;28;20212;-69
2022/04/13 06:37:39;;;;;;;11.68;10.35;;;13.10;99.90;;;;;;5117234;28;20206;-67
2022/04/13 06:40:08;;;;;;;12.07;10.32;;;13.20;99.90;;;;;;5117409;28;20215;-69
2022/04/13 06:42:36;;;;;;;12.10;10.90;;;13.30;99.90;;;;;;5117808;28;20225;-69
2022/04/13 06:45:04;;;;;;;11.57;10.45;;;13.50;99.90;;;;;;5117574;28;20311;-67
2022/04/13 06:47:31;;;;;;;11.05;9.95;;;13.70;99.90;;;;;;5116760;27;20204;-66
2022/04/13 06:49:59;;;;;;;11.82;10.07;;;13.90;99.90;;;;;;5116663;28;20717;-66
2022/04/13 06:52:32;;;;;;;11.27;10.07;;;14.00;99.90;;;;;;5116409;28;20724;-68
2022/04/13 06:54:59;;;;;;;11.15;9.90;;;14.20;99.90;;;;;;5116458;28;20735;-68
2022/04/13 06:57:25;;;;;;;11.60;10.40;;;14.50;99.90;;;;;;5116576;28;20692;-69
2022/04/13 06:59:52;;;;;;;12.60;10.70;;;14.70;99.90;;;;;;5116531;28;20236;-68
2022/04/13 07:02:19;;;;;;;10.35;9.35;;;14.80;99.90;;;;;;5116410;28;20648;-70
2022/04/13 07:04:46;;;;;;;10.63;9.70;;;15.00;99.90;;;;;;5116290;28;20210;-69
2022/04/13 07:07:14;;;;;;;10.90;9.90;;;15.10;99.90;;;;;;5116447;28;20203;-67
2022/04/13 07:09:41;;;;;;;10.48;9.48;;;15.30;99.90;;;;;;5116407;28;20237;-67
2022/04/13 07:12:09;;;;;;;11.55;10.38;;;15.50;99.90;;;;;;5116319;28;20224;-67
2022/04/13 07:14:36;;;;;;;11.73;9.82;;;15.70;99.90;;;;;;5115938;28;20200;-69
2022/04/13 07:17:03;;;;;;;10.60;9.60;;;15.60;99.90;;;;;;5116126;28;20197;-68
2022/04/13 07:19:30;;;;;;;12.80;11.45;;;15.80;99.90;;;;;;5116105;28;20583;-69
2022/04/13 07:21:58;;;;;;;11.35;10.02;;;16.00;99.90;;;;;;5115421;28;20224;-69
2022/04/13 07:24:27;;;;;;;11.85;10.77;;;16.20;99.60;;;;;;5115721;28;20204;-69
2022/04/13 07:26:54;;;;;;;11.73;10.52;;;16.30;99.20;;;;;;5116080;28;20210;-69
2022/04/13 07:29:21;;;;;;;11.80;10.60;;;16.40;98.30;;;;;;5115805;28;20316;-69
2022/04/13 07:31:48;;;;;;;10.38;9.35;;;16.40;99.00;;;;;;5116010;28;20653;-67
2022/04/13 07:34:15;;;;;;;12.65;9.82;;;16.30;99.00;;;;;;5115769;28;20255;-67
2022/04/13 07:36:42;;;;;;;11.52;10.38;;;16.20;99.70;;;;;;5115881;28;20285;-67
2022/04/13 07:39:09;;;;;;;11.65;9.65;;;16.00;99.70;;;;;;5115792;28;20231;-67
2022/04/13 07:41:37;;;;;;;10.38;8.90;;;15.90;99.90;;;;;;5115667;28;20225;-67
2022/04/13 07:44:04;;;;;;;10.18;9.18;;;16.00;99.90;;;;;;5115287;28;20295;-67
2022/04/13 07:46:31;;;;;;;11.25;9.90;;;16.30;99.90;;;;;;5115684;27;20206;-67
2022/04/13 07:48:57;;;;;;;10.77;9.68;;;16.30;99.90;;;;;;5115652;28;20235;-67
2022/04/13 07:51:26;;;;;;;12.80;10.27;;;16.50;99.90;;;;;;5115824;28;20224;-67
2022/04/13 07:53:53;;;;;;;12.15;10.95;;;16.70;99.50;;;;;;5115372;28;20669;-67
2022/04/13 07:56:19;;;;;;;10.45;9.45;;;16.90;99.00;;;;;;5115518;28;20562;-67
2022/04/13 07:58:47;;;;;;;11.43;10.23;;;16.60;98.30;;;;;;5115342;28;20225;-67
2022/04/13 08:01:15;;;;;;;9.93;8.75;;;16.80;98.60;;;;;;5115398;28;20227;-67
2022/04/13 08:03:42;;;;;;;11.05;10.05;;;16.90;98.70;;;;;;5114880;28;20212;-67
2022/04/13 08:06:10;;;;;;;11.10;10.00;;;17.00;97.80;;;;;;5115293;28;20202;-67
2022/04/13 08:08:38;;;;;;;10.32;9.32;;;17.10;97.80;;;;;;5115249;28;20194;-67
2022/04/13 08:11:05;;;;;;;11.55;10.30;;;17.20;97.60;;;;;;5115100;28;20312;-67
2022/04/13 08:13:32;;;;;;;10.65;9.10;;;17.40;96.60;;;;;;5115044;28;20300;-67
2022/04/13 08:16:01;;;;;;;9.98;9.07;;;17.50;97.60;;;;;;5115173;28;20216;-67
2022/04/13 08:18:27;;;;;;;10.88;9.50;;;17.90;96.90;;;;;;5114979;28;20230;-67
2022/04/13 08:20:54;;;;;;;8.90;8.00;;;18.20;95.90;;;;;;5114949;28;20595;-67
2022/04/13 08:23:21;;;;;;;9.77;8.75;;;18.50;95.00;;;;;;5114921;28;20398;-67
2022/04/13 08:25:48;;;;;;;11.63;9.00;;;18.90;94.40;;;;;;5114932;28;20203;-67
2022/04/13 08:28:14;;;;;;;9.97;8.97;;;19.00;93.40;;;;;;5114675;28;20443;-67
2022/04/13 08:30:41;;;;;;;10.53;9.00;;;18.90;91.80;;;;;;5114625;28;21003;-67
2022/04/13 08:33:10;;;;;;;11.48;9.10;;;18.80;93.10;;;;;;5114854;28;20533;-68
2022/04/13 08:35:37;;;;;;;10.50;8.85;;;18.80;93.30;;;;;;5114690;28;20241;-67
2022/04/13 08:38:03;;;;;;;10.50;8.93;;;18.80;92.40;;;;;;5114503;28;20201;-69
2022/04/13 08:40:34;;;;;;;9.18;8.13;;;18.70;92.70;;;;;;5114639;28;20289;-69
2022/04/13 08:43:09;;;;;;;9.53;8.63;;;18.90;92.80;;;;;;5114409;28;20707;-70
2022/04/13 08:45:40;;;;;;;9.23;8.30;;;19.20;91.60;;;;;;5114622;28;20450;-67
2022/04/13 08:48:13;;;;;;;7.63;7.03;;;19.50;91.90;;;;;;5114616;28;20451;-67
2022/04/13 08:50:44;;;;;;;10.90;7.70;;;19.60;90.80;;;;;;5114450;28;20471;-67
2022/04/13 08:53:12;;;;;;;8.40;7.17;;;19.90;87.00;;;;;;5114312;28;20819;-67
2022/04/13 08:55:47;;;;;;;8.00;6.70;;;20.10;88.00;;;;;;5114454;28;20439;-67
2022/04/13 08:58:24;;;;;;;7.90;6.50;;;20.40;84.70;;;;;;5114340;28;20439;-67
2022/04/13 09:00:55;;;;;;;6.93;5.87;;;20.80;82.80;;;;;;5114219;28;20461;-67
2022/04/13 09:03:32;;;;;;;7.87;6.73;;;21.10;79.20;;;;;;5114215;28;20438;-68
2022/04/13 09:06:00;;;;;;;8.30;6.97;;;21.00;76.10;;;;;;5114315;28;20452;-67
2022/04/13 09:08:34;;;;;;;8.63;7.07;;;20.90;74.30;;;;;;5114221;28;20527;-68
2022/04/13 09:11:02;;;;;;;7.00;6.20;;;21.10;75.90;;;;;;5114340;28;20472;-67
2022/04/13 09:13:32;;;;;;;7.07;6.37;;;21.60;74.00;;;;;;5113763;28;20443;-69
2022/04/13 09:16:00;;;;;;;7.60;5.80;;;22.10;71.30;;;;;;5114226;28;20446;-67
2022/04/13 09:18:29;;;;;;;7.23;6.10;;;22.40;71.80;;;;;;5113822;28;21005;-67
2022/04/13 09:20:56;;;;;;;5.90;5.40;;;22.70;64.90;;;;;;5113796;28;20547;-67
2022/04/13 09:23:23;;;;;;;5.90;4.53;;;22.90;65.20;;;;;;5113947;28;20458;-68
2022/04/13 09:25:52;;;;;;;5.80;4.90;;;23.50;60.30;;;;;;5114078;28;20459;-68
2022/04/13 09:28:19;;;;;;;7.13;5.43;;;23.80;59.00;;;;;;5114015;28;20448;-68
2022/04/13 09:30:46;;;;;;;6.20;4.80;;;24.30;59.20;;;;;;5113801;28;20474;-67
2022/04/13 09:33:13;;;;;;;6.80;5.27;;;25.00;58.80;;;;;;5113762;28;20804;-68
2022/04/13 09:35:41;;;;;;;6.33;5.00;;;24.30;54.60;;;;;;5113856;28;20449;-68
2022/04/13 09:38:10;;;;;;;5.33;4.90;;;24.00;53.60;;;;;;5113905;28;20863;-67
2022/04/13 09:40:39;;;;;;;5.17;3.57;;;23.60;54.80;;;;;;5113761;28;20485;-68
2022/04/13 09:43:07;;;;;;;3.53;3.30;;;24.30;54.40;;;;;;5114122;28;20446;-67
2022/04/13 09:45:37;;;;;;;4.33;3.57;;;25.10;51.50;;;;;;5114314;28;20439;-68
2022/04/13 09:48:08;;;;;;;5.37;4.10;;;26.20;51.70;;;;;;5118056;28;20830;-68
2022/04/13 09:50:35;;;;;;;6.10;4.20;;;27.00;49.70;;;;;;5117872;28;20458;-68
2022/04/13 09:53:06;;;;;;;4.30;3.90;;;27.70;48.00;;;;;;5117888;28;20531;-67
2022/04/13 09:55:39;;;;;;;4.37;4.03;;;27.30;44.60;;;;;;5117668;28;20431;-68
2022/04/13 09:58:07;;;;;;;3.60;3.30;;;27.50;46.20;;;;;;5117934;28;20445;-68
2022/04/13 10:00:35;;;;;;;4.37;3.97;;;28.10;43.50;;;;;;5117419;28;20952;-68
2022/04/13 10:03:13;;;;;;;4.97;3.30;;;27.40;41.70;;;;;;5117576;28;20447;-68
2022/04/13 10:05:43;;;;;;;4.10;3.23;;;26.70;43.30;;;;;;5117640;28;20443;-68
2022/04/13 10:08:13;;;;;;;5.33;3.53;;;26.80;45.10;;;;;;5117882;28;20447;-68
2022/04/13 10:10:45;;;;;;;3.90;3.37;;;27.00;43.00;;;;;;5117789;28;20571;-68
2022/04/13 10:13:13;;;;;;;5.37;3.43;;;26.90;44.00;;;;;;5117491;28;20455;-68
2022/04/13 10:15:40;;;;;;;5.10;3.70;;;27.60;44.10;;;;;;5117566;28;20438;-68
2022/04/13 10:18:07;;;;;;;3.40;3.10;;;28.60;43.10;;;;;;5117486;28;20445;-68
2022/04/13 10:20:44;;;;;;;3.87;3.00;;;27.80;40.70;;;;;;5117308;28;20484;-68
2022/04/13 10:23:13;;;;;;;4.80;3.93;;;27.70;43.20;;;;;;5117169;28;20434;-68
2022/04/13 10:25:40;;;;;;;4.63;3.83;;;27.90;42.40;;;;;;5117616;28;20441;-68
2022/04/13 10:28:07;;;;;;;4.90;4.50;;;26.70;42.70;;;;;;5117700;28;20858;-68
2022/04/13 10:30:36;;;;;;;14.70;5.30;;;26.20;43.90;;;;;;5116856;28;20474;-68
2022/04/13 10:33:04;;;;;;;3.83;3.27;;;26.60;45.00;;;;;;5117000;28;20443;-69
2022/04/13 10:35:33;;;;;;;8.73;3.97;;;27.50;43.90;;;;;;5117188;28;20442;-68
2022/04/13 10:38:00;;;;;;;4.87;3.50;;;28.70;42.50;;;;;;5117129;28;20446;-68
2022/04/13 10:40:31;;;;;;;4.10;3.80;;;29.90;40.90;;;;;;5116906;28;20481;-68
2022/04/13 10:43:01;;;;;;;4.70;4.27;;;30.60;39.20;;;;;;5116930;28;20529;-70
2022/04/13 10:45:29;;;;;;;5.20;4.33;;;31.10;38.50;;;;;;5116886;28;20439;-68
2022/04/13 10:47:59;;;;;;;4.27;3.97;;;31.90;38.10;;;;;;5116935;28;20443;-69
2022/04/13 10:50:32;;;;;;;4.77;4.37;;;32.70;37.60;;;;;;5116802;28;20435;-68
2022/04/13 10:53:01;;;;;;;5.80;4.90;;;32.20;37.30;;;;;;5116763;28;20546;-69
2022/04/13 10:55:33;;;;;;;6.53;5.27;;;32.00;37.90;;;;;;5116994;28;20436;-68
2022/04/13 10:58:09;;;;;;;6.80;5.20;;;30.70;38.30;;;;;;5116446;27;20869;-68
2022/04/13 11:00:38;;;;;;;5.93;5.17;;;29.10;41.30;;;;;;5116257;28;20478;-67
2022/04/13 11:03:06;;;;;;;7.40;5.70;;;27.80;43.10;;;;;;5116436;28;20447;-69
2022/04/13 11:05:34;;;;;;;8.63;5.10;;;27.50;45.00;;;;;;5116505;28;20439;-68
2022/04/13 11:08:13;;;;;;;5.50;5.00;;;27.10;44.20;;;;;;5116628;28;20435;-68
2022/04/13 11:10:43;;;;;;;5.47;5.07;;;26.30;46.30;;;;;;5116300;28;20550;-69
2022/04/13 11:13:10;;;;;;;5.33;4.70;;;26.30;47.50;;;;;;5116286;28;20449;-68
2022/04/13 11:15:42;;;;;;;6.90;4.40;;;27.40;47.30;;;;;;5116553;28;20448;-68
2022/04/13 11:18:11;;;;;;;5.30;4.03;;;28.10;43.80;;;;;;5116760;28;20479;-68
2022/04/13 11:20:39;;;;;;;4.30;3.77;;;27.10;43.60;;;;;;5116462;28;20574;-68
2022/04/13 11:23:16;;;;;;;7.13;4.40;;;27.60;44.10;;;;;;5116210;28;20580;-69
2022/04/13 11:25:50;;;;;;;7.03;3.87;;;27.40;44.10;;;;;;5116154;28;20978;-68
2022/04/13 11:28:25;;;;;;;4.40;4.00;;;27.70;44.50;;;;;;5116235;28;20441;-68
2022/04/13 11:31:06;;;;;;;4.47;3.67;;;27.80;44.90;;;;;;5115982;28;20471;-68
2022/04/13 11:33:48;;;;;;;4.30;2.97;;;27.00;43.40;;;;;;5115708;28;20476;-68
2022/04/13 11:36:15;;;;;;;7.30;3.73;;;27.00;43.60;;;;;;5116243;28;20885;-68
2022/04/13 11:38:48;;;;;;;6.53;3.60;;;26.80;44.10;;;;;;5116093;28;20443;-68
2022/04/13 11:41:16;;;;;;;9.20;4.60;;;25.90;46.20;;;;;;5115873;28;20486;-68
2022/04/13 11:43:43;;;;;;;5.57;3.50;;;25.10;46.30;;;;;;5115598;27;20460;-68
2022/04/13 11:46:35;;;;;;;5.03;3.77;;;25.00;47.10;;;;;;5115864;28;20450;-68
2022/04/13 11:49:02;;;;;;;6.40;3.40;;;24.80;47.20;;;;;;5115811;28;20443;-68
2022/04/13 11:51:30;;;;;;;4.30;3.27;;;24.80;47.50;;;;;;5116168;28;20865;-68
2022/04/13 11:54:06;;;;;;;4.67;3.50;;;25.00;48.00;;;;;;5115630;28;20446;-69
2022/04/13 11:56:36;;;;;;;6.57;3.40;;;24.90;46.60;;;;;;5116249;28;20878;-68
2022/04/13 11:59:03;;;;;;;6.10;3.43;;;24.40;46.40;;;;;;5115952;28;20458;-68
2022/04/13 12:01:33;;;;;;;4.23;3.10;;;24.30;47.20;;;;;;5115441;28;20488;-68
2022/04/13 12:04:02;;;;;;;4.33;3.57;;;24.20;47.60;;;;;;5115280;28;20541;-68
2022/04/13 12:06:29;;;;;;;4.80;3.30;;;24.20;46.60;;;;;;5115334;28;20452;-68
2022/04/13 12:08:57;;;;;;;5.97;3.77;;;24.10;47.40;;;;;;5114729;28;20443;-68
2022/04/13 12:11:37;;;;;;;4.43;3.50;;;24.20;47.30;;;;;;5115122;27;20984;-68
2022/04/13 12:14:06;;;;;;;5.77;3.20;;;24.10;47.40;;;;;;5115085;28;20450;-68
2022/04/13 12:16:34;;;;;;;3.17;2.83;;;24.10;46.40;;;;;;5115250;28;20440;-68
2022/04/13 12:19:03;;;;;;;3.93;3.30;;;24.10;47.50;;;;;;5115373;28;20446;-69
2022/04/13 12:21:31;;;;;;;6.80;3.30;;;24.00;47.90;;;;;;5114682;28;20530;-68
2022/04/13 12:24:01;;;;;;;4.07;3.17;;;23.90;49.40;;;;;;5114788;27;20487;-68
2022/04/13 12:26:33;;;;;;;5.50;3.70;;;23.80;49.00;;;;;;5115149;28;20437;-69
2022/04/13 12:29:00;;;;;;;4.53;3.40;;;23.90;48.60;;;;;;5114865;28;20458;-69
2022/04/13 12:31:29;;;;;;;4.07;3.27;;;23.90;48.30;;;;;;5114752;28;20467;-69
2022/04/13 12:34:04;;;;;;;6.80;3.60;;;23.90;48.00;;;;;;5115116;28;20451;-68
2022/04/13 12:36:31;;;;;;;3.77;3.33;;;24.20;49.20;;;;;;5114898;28;20495;-68
2022/04/13 12:38:57;;;;;;;3.80;2.93;;;24.20;47.70;;;;;;5114839;28;20804;-68
2022/04/13 12:41:28;;;;;;;3.60;2.93;;;24.00;48.30;;;;;;5114575;28;20490;-69
2022/04/13 12:43:57;;;;;;;4.33;3.20;;;24.10;48.40;;;;;;5114352;28;20926;-69
2022/04/13 12:46:25;;;;;;;7.10;3.20;;;24.30;48.80;;;;;;5114386;28;20939;-68
2022/04/13 12:48:56;;;;;;;5.10;2.90;;;24.30;48.40;;;;;;5114732;28;20448;-68